Time;durP1;ratioP1;P1;durP2;ratioP2;P2;SDS_P1;SDS_P2;PMS_P1;PMS_P2;Temp;Humidity;BMP_temperature;BMP_pressure;BME280_temperature;BME280_humidity;BME280_pressure;Samples;Min_cycle;Max_cycle;Signal;HPM_P1;HPM_P2
2021/04/05 00:00:18;;;;;;;24.63;12.77;;;3.70;99.90;;;;;;4918200;29;20513;-83
2021/04/05 00:02:45;;;;;;;16.70;12.70;;;3.70;99.90;;;;;;4917906;29;20956;-82
2021/04/05 00:05:14;;;;;;;14.90;13.40;;;3.70;99.90;;;;;;4916940;29;20458;-82
2021/04/05 00:07:43;;;;;;;16.40;14.40;;;3.70;99.90;;;;;;4918105;29;20869;-82
2021/04/05 00:10:12;;;;;;;21.27;19.20;;;3.70;99.90;;;;;;4899233;29;20478;-83
2021/04/05 00:12:43;;;;;;;18.07;16.47;;;3.70;99.90;;;;;;4898999;29;20850;-82
2021/04/05 00:15:17;;;;;;;19.17;17.60;;;3.70;99.90;;;;;;4899131;29;21060;-83
2021/04/05 00:17:45;;;;;;;17.70;15.97;;;3.80;99.90;;;;;;4902812;29;20520;-83
2021/04/05 00:20:33;;;;;;;51.67;15.00;;;3.80;99.90;;;;;;4897894;29;20455;-83
2021/04/05 00:23:08;;;;;;;13.73;11.77;;;4.00;99.90;;;;;;4904170;29;20954;-83
2021/04/05 00:25:34;;;;;;;11.80;10.60;;;4.10;99.90;;;;;;4917474;29;20888;-83
2021/04/05 00:28:02;;;;;;;15.47;10.37;;;4.30;99.90;;;;;;4917752;29;20497;-83
2021/04/05 00:30:31;;;;;;;15.00;9.40;;;4.30;99.90;;;;;;4917628;29;21013;-83
2021/04/05 00:33:04;;;;;;;10.50;7.47;;;4.40;99.90;;;;;;4917280;29;20549;-83
2021/04/05 00:35:36;;;;;;;9.70;7.03;;;4.40;99.90;;;;;;4916324;29;20462;-82
2021/04/05 00:38:05;;;;;;;11.90;4.83;;;4.40;99.90;;;;;;4917398;29;20965;-82
2021/04/05 00:40:39;;;;;;;22.73;10.23;;;4.40;99.90;;;;;;4917808;29;20466;-83
2021/04/05 00:43:08;;;;;;;12.00;8.17;;;4.50;99.90;;;;;;4917255;29;20462;-83
2021/04/05 00:45:36;;;;;;;8.30;4.43;;;4.50;99.90;;;;;;4917375;29;20448;-83
2021/04/05 00:48:04;;;;;;;8.87;3.63;;;4.70;99.90;;;;;;4917386;29;20458;-82
2021/04/05 00:50:40;;;;;;;9.67;2.87;;;4.60;99.90;;;;;;4916272;29;20493;-82
2021/04/05 00:53:08;;;;;;;17.73;5.50;;;4.70;99.90;;;;;;4917032;29;20481;-82
2021/04/05 00:55:35;;;;;;;18.43;5.70;;;4.70;99.90;;;;;;4917382;29;20461;-82
2021/04/05 00:58:04;;;;;;;8.27;4.10;;;4.80;99.90;;;;;;4917272;29;20454;-82
2021/04/05 01:00:39;;;;;;;17.50;6.60;;;4.90;99.90;;;;;;4917209;29;20457;-82
2021/04/05 01:03:07;;;;;;;15.53;6.77;;;4.90;99.90;;;;;;4916974;29;20833;-82
2021/04/05 01:05:35;;;;;;;12.10;6.77;;;4.90;99.90;;;;;;4915017;29;20458;-83
2021/04/05 01:08:04;;;;;;;19.50;7.63;;;5.00;99.90;;;;;;4917238;29;20512;-83
2021/04/05 01:10:32;;;;;;;15.73;7.50;;;4.90;99.90;;;;;;4916995;29;20488;-83
2021/04/05 01:13:01;;;;;;;23.40;8.07;;;5.00;99.90;;;;;;4916839;29;20572;-83
2021/04/05 01:15:27;;;;;;;23.43;8.70;;;5.00;99.90;;;;;;4917113;29;20959;-83
2021/04/05 01:17:53;;;;;;;19.80;11.77;;;5.00;99.90;;;;;;4918485;29;20497;-83
2021/04/05 01:20:22;;;;;;;27.93;11.70;;;5.00;99.90;;;;;;4916009;29;20468;-83
2021/04/05 01:22:53;;;;;;;18.20;9.77;;;5.10;99.90;;;;;;4916606;29;20485;-83
2021/04/05 01:25:22;;;;;;;12.30;8.47;;;5.10;99.90;;;;;;4916791;29;20507;-82
2021/04/05 01:27:51;;;;;;;25.60;13.23;;;5.10;99.90;;;;;;4916680;29;20454;-83
2021/04/05 01:30:31;;;;;;;18.10;10.63;;;5.20;99.90;;;;;;4916841;29;20473;-82
2021/04/05 01:33:12;;;;;;;24.13;11.70;;;5.10;99.90;;;;;;4916451;29;20564;-83
2021/04/05 01:35:42;;;;;;;10.40;6.23;;;5.20;99.90;;;;;;4915407;29;20473;-82
2021/04/05 01:38:10;;;;;;;46.70;9.40;;;5.20;99.90;;;;;;4916574;29;20445;-82
2021/04/05 01:40:40;;;;;;;32.80;10.57;;;5.30;99.90;;;;;;4916671;29;20461;-83
2021/04/05 01:43:07;;;;;;;11.83;5.37;;;5.30;98.50;;;;;;4916313;29;20484;-83
2021/04/05 01:45:34;;;;;;;15.20;6.50;;;5.40;98.00;;;;;;4916763;29;20454;-83
2021/04/05 01:48:00;;;;;;;15.83;6.63;;;5.50;97.70;;;;;;4916623;29;20465;-82
2021/04/05 01:50:32;;;;;;;16.40;9.07;;;5.40;98.10;;;;;;4915390;29;20519;-82
2021/04/05 01:53:02;;;;;;;26.03;9.47;;;5.50;97.40;;;;;;4916038;29;20474;-83
2021/04/05 01:55:30;;;;;;;21.03;10.20;;;5.40;97.50;;;;;;4916317;29;20483;-83
2021/04/05 01:57:56;;;;;;;27.80;9.80;;;5.40;97.40;;;;;;4916916;29;20545;-82
2021/04/05 02:00:30;;;;;;;24.53;11.63;;;5.40;97.40;;;;;;4916548;29;20466;-82
2021/04/05 02:02:57;;;;;;;20.87;7.70;;;5.40;96.60;;;;;;4916260;29;20464;-82
2021/04/05 02:05:30;;;;;;;17.90;8.23;;;5.40;96.30;;;;;;4915262;29;20856;-83
2021/04/05 02:07:58;;;;;;;20.50;8.47;;;5.40;96.20;;;;;;4916288;29;20449;-82
2021/04/05 02:10:27;;;;;;;14.77;9.40;;;5.40;95.20;;;;;;4916434;29;20509;-83
2021/04/05 02:12:57;;;;;;;19.20;8.20;;;5.50;92.80;;;;;;4916154;29;20450;-83
2021/04/05 02:15:25;;;;;;;28.70;10.53;;;5.60;91.50;;;;;;4916296;29;20466;-82
2021/04/05 02:17:52;;;;;;;21.03;7.63;;;5.70;89.50;;;;;;4918841;29;20874;-82
2021/04/05 02:20:20;;;;;;;23.80;10.23;;;5.60;89.50;;;;;;4918880;29;20529;-83
2021/04/05 02:22:48;;;;;;;28.13;11.67;;;5.70;88.90;;;;;;4919806;29;20597;-83
2021/04/05 02:25:16;;;;;;;26.63;10.90;;;5.70;89.00;;;;;;4919795;29;20516;-82
2021/04/05 02:27:44;;;;;;;19.97;7.13;;;5.70;85.80;;;;;;4919888;29;20877;-83
2021/04/05 02:30:22;;;;;;;18.20;7.20;;;5.70;88.00;;;;;;4919996;29;20465;-82
2021/04/05 02:33:03;;;;;;;;;;;;;;;;;;;;;
2021/04/05 02:35:33;;;;;;;12.47;7.70;;;5.70;82.70;;;;;;4918506;29;20540;-83
2021/04/05 02:38:01;;;;;;;20.63;9.50;;;5.70;84.00;;;;;;4919605;29;20466;-82
2021/04/05 02:40:29;;;;;;;24.70;9.70;;;5.70;82.00;;;;;;4919866;29;20461;-83
2021/04/05 02:42:57;;;;;;;14.40;7.70;;;5.70;82.70;;;;;;4919487;29;20461;-82
2021/04/05 02:45:26;;;;;;;11.17;5.87;;;5.70;82.40;;;;;;4919591;29;20454;-82
2021/04/05 02:47:55;;;;;;;14.07;6.17;;;5.70;82.00;;;;;;4919588;29;20489;-82
2021/04/05 02:50:24;;;;;;;15.73;7.03;;;5.80;81.50;;;;;;4918024;29;20966;-83
2021/04/05 02:52:55;;;;;;;18.27;7.60;;;5.80;81.30;;;;;;4919354;29;20458;-82
2021/04/05 02:55:27;;;;;;;10.27;5.60;;;5.70;82.00;;;;;;4919179;29;20493;-83
2021/04/05 02:57:54;;;;;;;16.30;8.27;;;5.70;82.50;;;;;;4919405;29;20454;-82
2021/04/05 03:00:23;;;;;;;12.83;6.43;;;5.70;82.30;;;;;;4919113;29;20454;-83
2021/04/05 03:02:55;;;;;;;22.60;6.87;;;5.70;83.30;;;;;;4919513;29;20465;-82
2021/04/05 03:05:23;;;;;;;18.80;6.23;;;5.70;82.00;;;;;;4917929;29;20454;-82
2021/04/05 03:07:57;;;;;;;13.70;6.10;;;5.80;83.30;;;;;;4919285;29;20537;-83
2021/04/05 03:10:27;;;;;;;13.83;6.63;;;5.70;82.70;;;;;;4918873;29;20488;-83
2021/04/05 03:15:51;;;;;;;10.90;6.20;;;5.60;86.60;;;;;;4916200;29;20505;-83
2021/04/05 03:18:20;;;;;;;13.07;7.43;;;5.60;88.00;;;;;;4917906;29;20454;-82
2021/04/05 03:20:50;;;;;;;9.57;3.97;;;5.50;89.40;;;;;;4916784;29;20485;-81
2021/04/05 03:23:29;;;;;;;19.87;8.27;;;5.60;87.10;;;;;;4918823;29;20458;-82
2021/04/05 03:25:56;;;;;;;21.70;7.13;;;5.70;82.80;;;;;;4917380;29;20524;-82
2021/04/05 03:28:24;;;;;;;13.47;4.87;;;5.70;81.40;;;;;;4904936;29;20979;-83
2021/04/05 03:30:54;;;;;;;22.57;8.50;;;5.70;82.60;;;;;;4917945;29;20458;-82
2021/04/05 03:33:24;;;;;;;14.90;5.13;;;5.80;80.10;;;;;;4917742;29;20529;-83
2021/04/05 03:35:55;;;;;;;10.90;5.67;;;5.80;78.40;;;;;;4917432;29;20841;-82
2021/04/05 03:38:22;;;;;;;13.33;6.00;;;5.90;74.60;;;;;;4918938;29;20853;-82
2021/04/05 03:40:49;;;;;;;21.00;8.07;;;5.90;74.50;;;;;;4918487;29;20454;-82
2021/04/05 03:43:23;;;;;;;12.03;6.17;;;5.90;74.60;;;;;;4899881;29;20498;-83
2021/04/05 03:45:54;;;;;;;15.07;6.53;;;5.90;75.60;;;;;;4899915;29;20463;-82
2021/04/05 03:48:28;;;;;;;19.40;7.90;;;5.90;74.50;;;;;;4918639;29;20469;-82
2021/04/05 03:51:03;;;;;;;13.27;5.73;;;6.00;74.30;;;;;;4916842;29;20548;-81
2021/04/05 03:53:39;;;;;;;14.80;5.83;;;6.00;74.50;;;;;;4918016;29;20499;-85
2021/04/05 03:56:14;;;;;;;14.80;7.10;;;6.00;74.50;;;;;;4916395;29;20449;-82
2021/04/05 03:58:45;;;;;;;12.63;4.93;;;6.10;72.80;;;;;;4917744;29;20457;-82
2021/04/05 04:01:16;;;;;;;22.10;6.90;;;6.20;70.60;;;;;;4917916;29;20466;-82
2021/04/05 04:03:58;;;;;;;14.43;5.50;;;6.30;70.40;;;;;;4909098;29;20484;-82
2021/04/05 04:06:32;;;;;;;12.63;4.47;;;6.30;68.70;;;;;;4916871;29;20494;-83
2021/04/05 04:09:01;;;;;;;16.47;6.00;;;6.30;69.70;;;;;;4918223;29;20473;-82
2021/04/05 04:11:29;;;;;;;13.80;6.43;;;6.20;69.10;;;;;;4917839;29;20509;-82
2021/04/05 04:13:58;;;;;;;13.10;4.97;;;6.20;70.10;;;;;;4917695;29;20482;-83
2021/04/05 04:16:29;;;;;;;15.80;6.63;;;6.30;69.80;;;;;;4917794;29;20522;-82
2021/04/05 04:19:05;;;;;;;15.83;7.83;;;6.30;69.90;;;;;;4918749;29;20492;-83
2021/04/05 04:21:51;;;;;;;16.10;6.20;;;6.20;71.80;;;;;;4916358;29;20457;-83
2021/04/05 04:24:18;;;;;;;13.20;6.37;;;6.20;72.40;;;;;;4917394;29;20544;-84
2021/04/05 04:26:45;;;;;;;9.27;3.73;;;6.10;73.30;;;;;;4917496;29;20498;-82
2021/04/05 04:29:21;;;;;;;17.63;6.93;;;6.10;74.50;;;;;;4917654;29;21140;-77
2021/04/05 04:31:49;;;;;;;12.20;5.90;;;6.20;75.50;;;;;;4917510;29;20465;-83
2021/04/05 04:34:17;;;;;;;15.20;5.47;;;6.20;79.00;;;;;;4916672;29;20585;-82
2021/04/05 04:36:45;;;;;;;11.57;3.80;;;6.10;81.90;;;;;;4915733;29;20517;-83
2021/04/05 04:39:12;;;;;;;19.00;5.80;;;6.10;79.90;;;;;;4917574;29;20639;-82
2021/04/05 04:41:41;;;;;;;11.90;5.07;;;6.10;82.50;;;;;;4916830;29;20976;-83
2021/04/05 04:44:20;;;;;;;30.17;8.57;;;6.10;86.30;;;;;;4916713;29;20501;-82
2021/04/05 04:47:00;;;;;;;17.43;7.17;;;6.10;89.90;;;;;;4904583;29;20955;-83
2021/04/05 04:49:31;;;;;;;15.03;6.50;;;6.10;89.90;;;;;;4901167;29;20456;-82
2021/04/05 04:51:57;;;;;;;18.10;5.40;;;6.10;91.00;;;;;;4917314;29;20454;-83
2021/04/05 04:54:24;;;;;;;16.60;8.07;;;6.10;91.80;;;;;;4917023;29;20589;-83
2021/04/05 04:56:56;;;;;;;14.57;6.90;;;6.10;91.50;;;;;;4916977;29;20453;-83
2021/04/05 04:59:23;;;;;;;18.10;6.20;;;6.20;91.70;;;;;;4917265;29;20496;-82
2021/04/05 05:01:50;;;;;;;10.23;4.47;;;6.20;92.00;;;;;;4916697;29;20457;-83
2021/04/05 05:04:19;;;;;;;9.20;3.73;;;6.20;92.80;;;;;;4916870;29;20465;-82
2021/04/05 05:06:55;;;;;;;18.53;6.17;;;6.20;93.80;;;;;;4915744;29;20899;-83
2021/04/05 05:09:22;;;;;;;15.63;7.87;;;6.30;94.60;;;;;;4916886;29;20482;-83
2021/04/05 05:11:55;;;;;;;9.87;3.37;;;6.20;94.20;;;;;;4916862;29;20461;-83
2021/04/05 05:14:38;;;;;;;;;;;;;;;;;;;;;
2021/04/05 05:17:10;;;;;;;14.27;4.67;;;6.20;94.90;;;;;;4906566;29;20473;-83
2021/04/05 05:19:37;;;;;;;14.10;6.00;;;6.20;96.00;;;;;;4915797;29;20461;-82
2021/04/05 05:22:09;;;;;;;14.10;5.47;;;6.30;97.00;;;;;;4916475;29;20489;-83
2021/04/05 05:24:47;;;;;;;17.43;7.43;;;6.20;98.30;;;;;;4916561;29;20495;-83
2021/04/05 05:27:21;;;;;;;16.13;6.70;;;6.10;99.40;;;;;;4916467;29;20504;-85
2021/04/05 05:29:51;;;;;;;9.07;4.37;;;6.20;99.90;;;;;;4916772;29;20473;-83
2021/04/05 05:32:30;;;;;;;12.73;4.97;;;6.30;99.90;;;;;;4916370;29;20484;-83
2021/04/05 05:35:19;;;;;;;16.70;5.53;;;6.30;99.90;;;;;;4896699;29;21012;-83
2021/04/05 05:37:57;;;;;;;;;;;;;;;;;;;;;
2021/04/05 05:40:50;;;;;;;12.40;4.50;;;6.20;99.90;;;;;;4900896;29;20449;-84
2021/04/05 05:43:51;;;;;;;21.30;5.37;;;6.20;99.90;;;;;;4916879;29;20466;-82
2021/04/05 05:46:38;;;;;;;23.40;7.17;;;6.20;99.90;;;;;;4901288;29;20872;-83
2021/04/05 05:49:57;;;;;;;;;;;;;;;;;;;;;
2021/04/05 05:52:48;;;;;;;16.73;9.83;;;6.30;99.90;;;;;;4881592;29;20961;-82
2021/04/05 05:55:28;;;;;;;11.70;6.00;;;6.30;99.90;;;;;;4913894;29;20492;-83
2021/04/05 05:58:14;;;;;;;11.63;6.07;;;6.30;99.90;;;;;;4918396;29;20976;-83
2021/04/05 06:00:53;;;;;;;33.63;11.07;;;6.30;99.90;;;;;;4918739;29;20970;-83
2021/04/05 06:04:10;;;;;;;12.97;6.67;;;6.30;99.90;;;;;;4919835;29;20471;-84
2021/04/05 06:07:45;;;;;;;;;;;;;;;;;;;;;
2021/04/05 06:14:22;;;;;;;;;;;;;;;;;;;;;
2021/04/05 06:20:22;;;;;;;22.07;7.63;;;6.40;99.90;;;;;;4784078;30;20529;-84
2021/04/05 06:23:14;;;;;;;21.50;8.53;;;6.40;99.90;;;;;;4807813;29;20484;-84
2021/04/05 06:26:03;;;;;;;22.50;9.13;;;6.30;99.90;;;;;;4852367;29;20543;-84
2021/04/05 06:28:50;;;;;;;19.20;8.00;;;6.20;99.90;;;;;;4901612;29;20452;-84
2021/04/05 06:31:40;;;;;;;14.27;8.87;;;6.20;99.90;;;;;;4919185;29;20461;-84
2021/04/05 06:34:21;;;;;;;12.00;7.33;;;6.20;99.90;;;;;;4919116;29;20549;-83
2021/04/05 06:37:06;;;;;;;11.57;8.40;;;6.20;99.90;;;;;;4917632;29;20458;-84
2021/04/05 06:39:38;;;;;;;14.23;8.53;;;6.10;99.90;;;;;;4919113;29;20953;-83
2021/04/05 06:42:37;;;;;;;21.63;10.70;;;6.10;99.90;;;;;;4918646;29;20468;-83
2021/04/05 06:45:37;;;;;;;13.20;7.57;;;6.20;99.90;;;;;;4918666;29;20488;-83
2021/04/05 06:48:54;;;;;;;26.67;13.83;;;6.30;99.90;;;;;;4918849;29;20512;-83
2021/04/05 06:51:46;;;;;;;19.03;13.00;;;6.20;99.90;;;;;;4917843;29;20865;-83
2021/04/05 06:55:07;;;;;;;12.67;7.80;;;6.30;99.90;;;;;;4916606;29;20528;-84
2021/04/05 06:57:48;;;;;;;21.63;18.07;;;6.30;99.90;;;;;;4855412;29;20472;-83
2021/04/05 07:00:23;;;;;;;15.20;9.20;;;6.30;99.90;;;;;;4891818;29;20462;-82
2021/04/05 07:03:15;;;;;;;20.60;10.17;;;6.40;99.90;;;;;;4911063;29;20453;-82
2021/04/05 07:05:56;;;;;;;17.30;9.63;;;6.50;99.90;;;;;;4916767;29;20477;-82
2021/04/05 07:08:31;;;;;;;20.23;10.67;;;6.50;99.90;;;;;;4905488;29;20885;-81
2021/04/05 07:11:12;;;;;;;14.00;8.40;;;6.60;99.90;;;;;;4910127;29;20508;-82
2021/04/05 07:13:54;;;;;;;19.37;11.10;;;6.70;99.90;;;;;;4917437;29;20992;-81
2021/04/05 07:16:30;;;;;;;18.10;7.30;;;6.70;99.90;;;;;;4899634;29;20463;-82
2021/04/05 07:19:06;;;;;;;21.50;9.17;;;6.70;99.90;;;;;;4899758;29;20957;-82
2021/04/05 07:21:43;;;;;;;14.73;12.13;;;6.80;99.90;;;;;;4898136;29;20810;-81
2021/04/05 07:24:22;;;;;;;26.90;7.80;;;6.90;99.90;;;;;;4899181;29;20579;-82
2021/04/05 07:27:00;;;;;;;16.93;9.90;;;6.90;99.90;;;;;;4899392;29;20518;-82
2021/04/05 07:29:35;;;;;;;16.63;9.73;;;7.00;99.90;;;;;;4911651;29;20497;-83
2021/04/05 07:32:08;;;;;;;20.40;9.70;;;7.00;99.90;;;;;;4917989;29;20466;-82
2021/04/05 07:34:45;;;;;;;16.33;5.30;;;7.10;99.90;;;;;;4916281;29;20489;-82
2021/04/05 07:37:26;;;;;;;12.80;6.30;;;7.10;99.90;;;;;;4917944;29;20469;-82
2021/04/05 07:40:05;;;;;;;29.03;6.77;;;7.10;99.90;;;;;;4917586;29;20450;-83
2021/04/05 07:42:50;;;;;;;16.67;7.77;;;7.20;99.90;;;;;;4917173;29;20468;-83
2021/04/05 07:45:22;;;;;;;19.77;7.67;;;7.20;99.90;;;;;;4917290;29;20501;-82
2021/04/05 07:47:55;;;;;;;16.70;9.03;;;7.20;99.90;;;;;;4917863;29;20464;-82
2021/04/05 07:50:32;;;;;;;22.13;9.80;;;7.20;99.90;;;;;;4915553;29;20491;-83
2021/04/05 07:53:04;;;;;;;15.50;7.60;;;7.20;99.90;;;;;;4914731;29;20454;-84
2021/04/05 07:55:31;;;;;;;14.53;6.30;;;7.10;99.90;;;;;;4898665;29;20593;-82
2021/04/05 07:58:09;;;;;;;22.00;10.60;;;7.00;99.90;;;;;;4907972;29;20457;-81
2021/04/05 08:00:47;;;;;;;18.97;9.70;;;7.00;99.90;;;;;;4916508;29;20461;-80
2021/04/05 08:03:29;;;;;;;23.60;11.63;;;6.90;99.90;;;;;;4917374;29;20465;-80
2021/04/05 08:06:01;;;;;;;10.80;5.40;;;6.80;99.90;;;;;;4915269;29;20519;-82
2021/04/05 08:08:43;;;;;;;19.83;12.47;;;6.70;99.90;;;;;;4916491;29;20509;-81
2021/04/05 08:11:32;;;;;;;33.73;26.70;;;6.70;99.90;;;;;;4917259;29;20498;-79
2021/04/05 08:14:08;;;;;;;33.43;31.33;;;6.20;99.90;;;;;;4915715;29;20592;-81
2021/04/05 08:16:46;;;;;;;25.37;15.67;;;5.50;99.90;;;;;;4917327;29;20485;-81
2021/04/05 08:19:18;;;;;;;21.67;20.27;;;5.10;99.90;;;;;;4916588;29;20493;-82
2021/04/05 08:21:53;;;;;;;51.57;49.07;;;4.90;99.90;;;;;;4915202;29;20521;-81
2021/04/05 08:24:28;;;;;;;69.80;66.60;;;4.80;99.90;;;;;;4916837;29;21068;-82
2021/04/05 08:27:02;;;;;;;56.90;54.30;;;4.60;99.90;;;;;;4915977;29;20457;-83
2021/04/05 08:29:41;;;;;;;66.57;63.77;;;4.50;99.90;;;;;;4916036;29;20516;-83
2021/04/05 08:32:21;;;;;;;81.90;78.50;;;4.60;99.90;;;;;;4915226;29;20514;-84
2021/04/05 08:35:06;;;;;;;81.07;77.87;;;4.60;99.90;;;;;;4909954;29;20646;-83
2021/04/05 08:37:41;;;;;;;104.60;100.50;;;4.50;99.90;;;;;;4916666;29;20465;-83
2021/04/05 08:40:15;;;;;;;77.17;74.07;;;4.60;99.90;;;;;;4916065;29;20536;-83
2021/04/05 08:42:49;;;;;;;112.70;108.40;;;4.60;99.90;;;;;;4898807;29;20469;-82
2021/04/05 08:45:22;;;;;;;135.90;130.20;;;4.60;99.90;;;;;;4916474;29;20461;-82
2021/04/05 08:47:58;;;;;;;126.60;121.80;;;4.60;99.90;;;;;;4916582;29;20469;-84
2021/04/05 08:50:37;;;;;;;119.78;115.07;;;4.70;99.90;;;;;;4915064;29;20462;-84
2021/04/05 08:56:29;;;;;;;83.50;80.27;;;4.60;99.90;;;;;;4912485;29;20458;-85
2021/04/05 09:08:32;;;;;;;95.97;92.27;;;4.80;99.90;;;;;;4871538;29;20702;-85
2021/04/05 09:21:50;;;;;;;92.53;88.93;;;4.80;99.90;;;;;;4741146;29;20470;-85
2021/04/05 09:24:43;;;;;;;77.40;74.30;;;4.60;99.90;;;;;;4837811;29;20794;-86
2021/04/05 09:27:37;;;;;;;35.63;33.90;;;4.50;99.90;;;;;;4837419;29;20472;-84
2021/04/05 09:30:39;;;;;;;31.87;30.37;;;4.10;99.90;;;;;;4895657;29;20545;-87
2021/04/05 09:33:45;;;;;;;38.60;36.90;;;3.80;99.90;;;;;;4895940;29;20458;-84
2021/04/05 09:39:46;;;;;;;17.40;16.30;;;3.80;99.90;;;;;;4886394;29;20545;-85
2021/04/05 09:43:06;;;;;;;20.30;19.20;;;3.40;99.90;;;;;;4895802;29;20458;-85
2021/04/05 09:45:45;;;;;;;47.30;45.30;;;3.50;99.90;;;;;;4865443;29;20503;-85
2021/04/05 09:48:40;;;;;;;61.30;57.13;;;3.60;99.90;;;;;;4895973;29;20546;-84
2021/04/05 09:51:36;;;;;;;39.87;37.97;;;3.30;99.90;;;;;;4892888;29;20490;-85
2021/04/05 09:54:14;;;;;;;32.40;30.90;;;3.30;99.90;;;;;;4879039;29;20486;-83
2021/04/05 09:56:59;;;;;;;34.17;32.27;;;3.30;99.90;;;;;;4895509;29;20977;-84
2021/04/05 09:59:44;;;;;;;33.97;31.97;;;3.30;99.90;;;;;;4899062;29;20964;-84
2021/04/05 10:02:17;;;;;;;29.40;27.90;;;3.00;99.90;;;;;;4895528;29;20555;-86
2021/04/05 10:04:47;;;;;;;24.00;22.50;;;3.10;99.90;;;;;;4892775;29;20459;-81
2021/04/05 10:07:14;;;;;;;19.37;18.10;;;3.10;99.90;;;;;;4895668;29;20480;-84
2021/04/05 10:10:02;;;;;;;19.07;17.40;;;2.90;99.90;;;;;;4895732;29;20481;-84
2021/04/05 10:12:31;;;;;;;11.43;9.57;;;2.80;99.90;;;;;;4896028;29;20463;-84
2021/04/05 10:15:01;;;;;;;15.90;14.70;;;2.70;99.90;;;;;;4895781;29;20490;-83
2021/04/05 10:17:29;;;;;;;15.37;14.00;;;2.80;99.90;;;;;;4895723;29;20463;-82
2021/04/05 10:20:05;;;;;;;11.87;10.77;;;2.90;99.90;;;;;;4892423;29;20454;-84
2021/04/05 10:22:42;;;;;;;14.10;10.67;;;2.90;99.90;;;;;;5046965;23;21112;-82
2021/04/05 10:25:12;;;;;;;9.37;6.00;;;3.00;99.90;;;;;;4895632;29;20832;-82
2021/04/05 10:27:40;;;;;;;8.17;7.37;;;2.80;99.90;;;;;;4895404;29;21030;-84
2021/04/05 10:30:11;;;;;;;7.67;6.60;;;2.90;99.90;;;;;;4895524;29;20486;-85
2021/04/05 10:32:42;;;;;;;8.63;7.83;;;2.70;99.90;;;;;;4893650;29;20462;-85
2021/04/05 10:35:13;;;;;;;9.07;8.27;;;2.90;99.90;;;;;;4894152;29;20494;-85
2021/04/05 10:37:42;;;;;;;7.20;6.40;;;3.00;99.90;;;;;;4896072;29;20466;-85
2021/04/05 10:40:15;;;;;;;7.83;4.70;;;3.00;99.90;;;;;;4898949;29;20466;-84
2021/04/05 10:42:48;;;;;;;7.27;6.57;;;3.00;99.90;;;;;;4899041;29;20462;-83
2021/04/05 10:45:25;;;;;;;10.03;3.27;;;3.20;99.90;;;;;;4898947;29;20565;-83
2021/04/05 10:48:04;;;;;;;6.70;3.70;;;3.30;99.90;;;;;;4896155;29;20462;-82
2021/04/05 10:50:35;;;;;;;8.43;2.40;;;3.60;99.90;;;;;;4897946;29;20462;-83
2021/04/05 10:53:06;;;;;;;8.67;2.93;;;3.50;99.90;;;;;;4898679;29;20469;-82
2021/04/05 10:55:40;;;;;;;6.70;2.50;;;3.80;99.90;;;;;;4898076;29;20498;-82
2021/04/05 10:58:12;;;;;;;5.43;1.47;;;3.90;99.90;;;;;;4880757;29;20829;-82
2021/04/05 11:00:44;;;;;;;8.70;3.00;;;3.90;99.90;;;;;;4898740;29;20530;-83
2021/04/05 11:03:18;;;;;;;7.40;1.70;;;3.90;99.90;;;;;;4898074;29;20462;-82
2021/04/05 11:05:50;;;;;;;12.30;2.13;;;3.90;99.90;;;;;;4897550;29;21035;-83
2021/04/05 11:08:21;;;;;;;5.60;1.17;;;3.90;99.90;;;;;;4898497;29;20470;-82
2021/04/05 11:10:59;;;;;;;5.60;1.43;;;4.00;99.90;;;;;;4898474;29;20628;-83
2021/04/05 11:13:27;;;;;;;8.93;2.70;;;4.10;99.90;;;;;;4898431;29;20466;-83
2021/04/05 11:16:05;;;;;;;9.80;8.80;;;3.70;99.90;;;;;;4899738;29;20501;-82
2021/04/05 11:18:34;;;;;;;26.13;24.63;;;0.60;99.90;;;;;;4913467;29;20522;-82
2021/04/05 11:21:03;;;;;;;32.63;30.93;;;0.70;99.90;;;;;;4899387;29;20465;-83
2021/04/05 11:23:38;;;;;;;50.13;47.90;;;0.50;99.90;;;;;;4899958;29;20899;-85
2021/04/05 11:26:31;;;;;;;49.70;47.60;;;0.60;99.90;;;;;;4899828;29;20965;-84
2021/04/05 11:29:15;;;;;;;66.30;63.60;;;0.80;99.90;;;;;;4898020;29;20534;-83
2021/04/05 11:31:53;;;;;;;;;;;;;;;;;;;;;
2021/04/05 11:34:38;;;;;;;;;;;;;;;;;;;;;
2021/04/05 11:37:14;;;;;;;107.13;103.03;;;1.40;99.90;;;;;;4898774;29;20485;-84
2021/04/05 11:40:10;;;;;;;96.73;93.10;;;1.70;99.90;;;;;;4891562;29;20454;-83
2021/04/05 11:42:43;;;;;;;93.83;90.23;;;2.20;99.90;;;;;;4899896;29;20550;-84
2021/04/05 11:45:13;;;;;;;65.90;62.07;;;2.50;99.90;;;;;;4900633;29;20459;-84
2021/04/05 11:47:49;;;;;;;61.47;58.83;;;2.60;99.90;;;;;;4903165;29;20450;-84
2021/04/05 11:50:19;;;;;;;65.80;62.73;;;3.00;99.90;;;;;;4905859;29;20979;-84
2021/04/05 11:53:05;;;;;;;10.20;9.10;;;3.50;99.90;;;;;;4907264;29;20981;-84
2021/04/05 11:55:41;;;;;;;6.63;4.03;;;3.40;99.90;;;;;;4915778;29;20505;-84
2021/04/05 11:58:49;;;;;;;6.50;2.50;;;3.70;99.90;;;;;;4908450;29;20461;-85
2021/04/05 12:04:54;;;;;;;;;;;;;;;;;;;;;
2021/04/05 12:07:47;;;;;;;;;;;;;;;;;;;;;
2021/04/05 12:11:02;;;;;;;;;;;;;;;;;;;;;
2021/04/05 12:20:24;;;;;;;6.87;1.73;;;4.60;96.30;;;;;;4805367;29;20467;-87
2021/04/05 12:33:03;;;;;;;7.50;2.17;;;2.20;99.90;;;;;;4816014;29;20871;-83
2021/04/05 12:35:59;;;;;;;7.10;1.73;;;2.50;99.90;;;;;;4821783;29;20489;-85
2021/04/05 12:39:12;;;;;;;8.10;1.70;;;2.20;99.90;;;;;;4752598;30;20476;-86
2021/04/05 12:45:30;;;;;;;7.10;1.97;;;2.00;99.90;;;;;;4824877;29;20464;-86
2021/04/05 12:48:30;;;;;;;7.90;2.13;;;2.50;99.90;;;;;;4859447;29;20464;-85
2021/04/05 13:20:43;;;;;;;;;;;;;;;;;;;;;
2021/04/05 13:23:16;;;;;;;7.10;1.30;;;2.40;99.90;;;;;;4822021;29;20501;-85
2021/04/05 13:28:36;;;;;;;7.30;1.73;;;1.10;99.90;;;;;;4879412;29;20455;-84
2021/04/05 13:31:05;;;;;;;10.50;1.97;;;0.90;99.90;;;;;;4896653;29;20998;-84
2021/04/05 13:34:04;;;;;;;6.00;1.57;;;1.10;99.90;;;;;;4896602;29;20526;-85
2021/04/05 13:37:16;;;;;;;5.30;1.03;;;1.70;99.90;;;;;;4896126;29;20471;-85
2021/04/05 13:40:01;;;;;;;5.30;1.10;;;2.60;99.90;;;;;;4899664;29;20970;-85
2021/04/05 13:52:48;;;;;;;;;;;;;;;;;;;;;
2021/04/05 14:12:56;;;;;;;;;;;;;;;;;;;;;
2021/04/05 14:35:35;;;;;;;;;;;;;;;;;;;;;
2021/04/05 14:51:24;;;;;;;;;;;;;;;;;;;;;
2021/04/05 14:57:29;;;;;;;8.30;1.40;;;6.30;1.00;;;;;;4824150;29;20551;-85
2021/04/05 15:00:48;;;;;;;;;;;;;;;;;;;;;
2021/04/05 15:03:54;;;;;;;;;;;;;;;;;;;;;
2021/04/05 15:17:25;;;;;;;;;;;;;;;;;;;;;
2021/04/05 15:20:16;;;;;;;9.80;1.37;;;5.90;1.00;;;;;;4850730;29;20455;-85
2021/04/05 15:23:17;;;;;;;8.37;1.40;;;5.50;1.00;;;;;;4901096;29;20564;-85
2021/04/05 15:26:36;;;;;;;7.80;1.47;;;5.50;2.60;;;;;;4899581;29;21382;-84
2021/04/05 15:29:42;;;;;;;;;;;;;;;;;;;;;
2021/04/05 15:35:54;;;;;;;7.17;1.17;;;5.90;5.40;;;;;;4840961;29;20536;-85
2021/04/05 15:38:39;;;;;;;14.73;1.77;;;5.10;10.10;;;;;;4842298;29;20499;-84
2021/04/05 15:47:59;;;;;;;6.50;0.90;;;4.30;25.50;;;;;;4786115;29;20467;-85
2021/04/05 15:51:02;;;;;;;;;;;;;;;;;;;;;
2021/04/05 15:53:57;;;;;;;;;;;;;;;;;;;;;
2021/04/05 15:56:53;;;;;;;6.60;1.27;;;3.70;24.20;;;;;;4841698;29;20504;-84
2021/04/05 15:59:35;;;;;;;7.20;1.80;;;3.30;47.40;;;;;;4881173;29;20526;-85
2021/04/05 16:05:27;;;;;;;;;;;;;;;;;;;;;
2021/04/05 16:08:41;;;;;;;7.03;1.43;;;2.60;96.20;;;;;;4899302;29;20498;-84
2021/04/05 16:12:09;;;;;;;;;;;;;;;;;;;;;
2021/04/05 16:21:50;;;;;;;;;;;;;;;;;;;;;
2021/04/05 16:24:28;;;;;;;6.50;1.13;;;4.70;49.80;;;;;;4898359;29;20479;-85
2021/04/05 16:31:17;;;;;;;;;;;;;;;;;;;;;
2021/04/05 16:34:14;;;;;;;;;;;;;;;;;;;;;
2021/04/05 16:36:48;;;;;;;6.63;0.90;;;5.30;30.60;;;;;;4898643;29;20526;-84
2021/04/05 16:46:27;;;;;;;;;;;;;;;;;;;;;
2021/04/05 16:49:00;;;;;;;7.07;1.20;;;4.90;28.60;;;;;;4791264;29;20459;-85
2021/04/05 16:55:28;;;;;;;6.60;1.17;;;4.50;38.70;;;;;;4885352;29;20493;-84
2021/04/05 16:58:37;;;;;;;;;;;;;;;;;;;;;
2021/04/05 17:01:41;;;;;;;;;;;;;;;;;;;;;
2021/04/05 17:04:39;;;;;;;8.30;1.60;;;5.30;10.20;;;;;;4880707;29;20999;-84
2021/04/05 17:07:56;;;;;;;;;;;;;;;;;;;;;
2021/04/05 17:30:35;;;;;;;6.10;1.10;;;3.80;23.60;;;;;;4571516;31;20489;-84
2021/04/05 17:33:16;;;;;;;8.63;1.53;;;4.20;23.90;;;;;;4756690;30;20555;-84
2021/04/05 17:35:46;;;;;;;6.60;1.93;;;3.70;27.30;;;;;;4889224;29;20497;-84
2021/04/05 17:38:25;;;;;;;7.83;1.63;;;3.80;25.00;;;;;;4897985;29;20852;-84
2021/04/05 17:41:00;;;;;;;6.93;1.20;;;3.40;35.90;;;;;;4896792;29;20462;-84
2021/04/05 17:43:35;;;;;;;9.40;1.57;;;3.40;33.40;;;;;;4892480;29;20553;-83
2021/04/05 17:46:11;;;;;;;7.17;1.40;;;3.40;39.80;;;;;;4895517;29;20462;-83
2021/04/05 17:48:50;;;;;;;6.07;1.20;;;3.50;40.10;;;;;;4893609;29;20481;-83
2021/04/05 17:51:44;;;;;;;7.33;1.67;;;3.40;51.20;;;;;;4894699;29;20470;-83
2021/04/05 17:54:19;;;;;;;5.93;1.40;;;2.70;99.90;;;;;;4895797;29;20509;-83
2021/04/05 17:56:53;;;;;;;5.70;1.90;;;1.70;99.90;;;;;;4895661;29;20489;-83
2021/04/05 17:59:45;;;;;;;11.10;3.50;;;1.70;99.90;;;;;;4895935;29;20462;-83
2021/04/05 18:02:20;;;;;;;6.33;2.53;;;1.70;99.90;;;;;;4893833;29;20470;-83